createdAt,value
2022-12-16T00:01:42.457Z,27.95
2022-12-16T00:02:44.010Z,26.98
2022-12-16T00:03:52.006Z,29.67
2022-12-16T00:04:53.628Z,26.00
2022-12-16T00:05:55.144Z,25.52
2022-12-16T00:06:56.585Z,27.10
2022-12-16T00:09:00.190Z,23.63
2022-12-16T00:10:01.720Z,24.52
2022-12-16T00:11:03.706Z,25.55
2022-12-16T00:12:05.526Z,27.75
2022-12-16T00:13:10.517Z,23.77
2022-12-16T00:14:12.560Z,33.22
2022-12-16T00:15:14.113Z,28.63
2022-12-16T00:16:16.942Z,25.45
2022-12-16T00:17:18.466Z,26.33
2022-12-16T00:18:20.281Z,28.38
2022-12-16T00:19:21.790Z,26.42
2022-12-16T00:20:23.213Z,27.67
2022-12-16T00:22:30.421Z,25.33
2022-12-16T00:23:32.740Z,28.05
2022-12-16T00:24:34.524Z,22.90
2022-12-16T00:25:35.959Z,28.90
2022-12-16T00:27:38.872Z,28.73
2022-12-16T00:28:40.988Z,25.80
2022-12-16T00:29:42.508Z,27.27
2022-12-16T00:30:44.479Z,26.58
2022-12-16T00:31:48.224Z,26.25
2022-12-16T00:32:49.833Z,29.23
2022-12-16T00:33:55.441Z,32.17
2022-12-16T00:34:56.921Z,27.20
2022-12-16T00:35:58.404Z,30.48
2022-12-16T00:36:59.872Z,26.58
2022-12-16T00:38:01.452Z,28.10
2022-12-16T00:39:02.947Z,26.33
2022-12-16T00:40:04.901Z,23.05
2022-12-16T00:41:06.492Z,28.15
2022-12-16T00:42:08.137Z,28.15
2022-12-16T00:43:09.715Z,23.13
2022-12-16T00:44:11.153Z,25.48
2022-12-16T00:46:14.156Z,24.42
2022-12-16T00:47:15.680Z,25.45
2022-12-16T00:48:17.506Z,27.67
2022-12-16T00:49:18.998Z,26.63
2022-12-16T00:51:22.256Z,26.90
2022-12-16T00:52:24.101Z,30.52
2022-12-16T00:53:25.864Z,33.63
2022-12-16T00:54:27.390Z,32.80
2022-12-16T00:55:29.348Z,30.63
2022-12-16T00:56:30.828Z,33.60
2022-12-16T00:57:32.281Z,28.92
2022-12-16T00:58:33.789Z,29.23
2022-12-16T00:59:35.244Z,29.92
2022-12-16T01:00:36.809Z,28.60
2022-12-16T01:01:38.360Z,29.88
2022-12-16T01:02:40.797Z,29.63
2022-12-16T01:03:42.863Z,28.20
2022-12-16T01:04:44.452Z,29.80
2022-12-16T01:05:45.925Z,28.77
2022-12-16T01:06:47.545Z,31.15
2022-12-16T01:07:49.013Z,33.05
2022-12-16T01:08:50.437Z,29.08
2022-12-16T01:09:52.385Z,29.08
2022-12-16T01:10:57.329Z,29.10
2022-12-16T01:11:58.793Z,28.60
2022-12-16T01:13:00.449Z,29.00
2022-12-16T01:14:02.233Z,27.85
2022-12-16T01:15:05.309Z,24.17
2022-12-16T01:16:06.946Z,27.48
2022-12-16T01:17:08.744Z,24.67
2022-12-16T01:18:11.357Z,27.70
2022-12-16T01:19:12.827Z,27.17
2022-12-16T01:20:14.377Z,27.50
2022-12-16T01:21:15.957Z,29.50
2022-12-16T01:22:17.811Z,25.92
2022-12-16T01:23:19.263Z,28.63
2022-12-16T01:24:20.741Z,26.95
2022-12-16T01:25:22.176Z,29.48
2022-12-16T01:26:24.013Z,25.20
2022-12-16T01:27:25.823Z,27.50
2022-12-16T01:28:30.347Z,28.92
2022-12-16T01:29:32.145Z,27.77
2022-12-16T01:30:33.611Z,26.63
2022-12-16T01:31:35.247Z,29.30
2022-12-16T01:32:36.970Z,30.58
2022-12-16T01:33:38.502Z,27.95
2022-12-16T01:34:40.125Z,27.70
2022-12-16T01:35:55.603Z,27.15
2022-12-16T01:36:57.700Z,25.00
2022-12-16T01:37:59.472Z,27.17
2022-12-16T01:39:01.198Z,26.40
2022-12-16T01:40:03.240Z,27.90
2022-12-16T01:41:05.012Z,27.73
2022-12-16T01:42:24.688Z,27.80
2022-12-16T01:43:28.264Z,27.27
2022-12-16T01:44:29.767Z,26.20
2022-12-16T01:45:31.604Z,28.63
2022-12-16T01:46:33.205Z,28.65
2022-12-16T01:47:34.749Z,29.35
2022-12-16T01:48:36.480Z,28.92
2022-12-16T01:49:40.153Z,27.70
2022-12-16T01:50:42.152Z,28.67
2022-12-16T01:51:50.459Z,31.48
2022-12-16T01:52:55.440Z,29.17
2022-12-16T01:53:59.004Z,28.73
2022-12-16T01:55:09.489Z,28.13
2022-12-16T01:56:12.214Z,30.00
2022-12-16T01:57:15.904Z,30.60
2022-12-16T01:58:25.042Z,26.38
2022-12-16T01:59:28.483Z,31.42
2022-12-16T02:00:29.942Z,28.50
2022-12-16T02:01:31.592Z,29.13
2022-12-16T02:02:33.793Z,29.27
2022-12-16T02:03:36.973Z,28.60
2022-12-16T02:05:01.716Z,27.48
2022-12-16T02:06:04.484Z,28.05
2022-12-16T02:07:05.958Z,29.67
2022-12-16T02:08:17.362Z,28.33
2022-12-16T02:09:19.141Z,26.60
2022-12-16T02:10:23.146Z,29.23
2022-12-16T02:11:32.276Z,27.00
2022-12-16T02:12:33.711Z,28.08
2022-12-16T02:13:38.269Z,29.50
2022-12-16T02:15:03.026Z,30.30
2022-12-16T02:16:07.623Z,29.88
2022-12-16T02:17:14.135Z,26.92
2022-12-16T02:18:24.437Z,29.92
2022-12-16T02:19:28.886Z,29.30
2022-12-16T02:20:30.364Z,29.25
2022-12-16T02:21:42.537Z,31.02
2022-12-16T02:23:05.468Z,28.58
2022-12-16T02:24:07.227Z,29.63
2022-12-16T02:25:28.316Z,31.90
2022-12-16T02:26:39.012Z,27.70
2022-12-16T02:27:40.561Z,28.50
2022-12-16T02:28:51.419Z,28.52
2022-12-16T02:30:08.451Z,30.70
2022-12-16T02:31:10.009Z,28.27
2022-12-16T02:32:23.814Z,31.35
2022-12-16T02:33:34.703Z,27.92
2022-12-16T02:34:36.351Z,28.17
2022-12-16T03:58:47.437Z,30.38
2022-12-16T03:59:48.927Z,32.45
2022-12-16T04:00:50.737Z,35.35
2022-12-16T04:01:52.409Z,32.45
2022-12-16T04:02:54.087Z,34.28
2022-12-16T04:03:55.817Z,31.17
2022-12-16T04:22:49.791Z,31.08
2022-12-16T05:01:28.231Z,27.35
2022-12-16T05:21:33.079Z,28.92
2022-12-16T05:22:53.031Z,30.17
2022-12-16T05:24:13.277Z,30.60
2022-12-16T05:25:33.113Z,27.58
2022-12-16T05:50:57.411Z,30.48
2022-12-16T05:52:17.502Z,29.67
2022-12-16T05:53:37.526Z,34.97
2022-12-16T05:54:57.816Z,33.60
2022-12-16T05:56:18.199Z,34.67
2022-12-16T05:57:38.361Z,34.22
2022-12-16T05:58:58.148Z,33.80
2022-12-16T06:00:18.237Z,35.15
2022-12-16T06:01:38.260Z,32.53
2022-12-16T06:11:00.193Z,31.33
2022-12-16T06:12:20.141Z,33.95
2022-12-16T06:13:40.381Z,35.88
2022-12-16T06:15:00.695Z,36.58
2022-12-16T06:16:21.063Z,34.85
2022-12-16T06:17:41.025Z,35.63
2022-12-16T06:19:01.234Z,30.40
2022-12-16T06:20:21.552Z,34.75
2022-12-16T06:21:41.735Z,33.35
2022-12-16T06:23:01.684Z,33.08
2022-12-16T06:24:21.821Z,35.00
2022-12-16T06:25:42.103Z,33.60
2022-12-16T06:27:02.100Z,36.45
2022-12-16T06:28:22.083Z,32.90
2022-12-16T06:29:41.983Z,35.28
2022-12-16T06:31:01.916Z,39.08
2022-12-16T06:32:21.786Z,40.08
2022-12-16T06:33:41.939Z,31.25
2022-12-16T06:35:02.282Z,36.47
2022-12-16T06:36:22.876Z,36.88
2022-12-16T06:37:50.858Z,35.85
2022-12-16T06:39:10.803Z,36.17
2022-12-16T06:40:30.816Z,38.17
2022-12-16T06:41:50.949Z,35.70
2022-12-16T06:43:11.213Z,38.25
2022-12-16T06:44:31.498Z,38.05
2022-12-16T06:45:51.456Z,38.63
2022-12-16T06:47:11.709Z,35.28
2022-12-16T06:48:31.937Z,36.28
2022-12-16T06:49:59.761Z,33.20
2022-12-16T06:51:19.625Z,38.55
2022-12-16T06:52:39.633Z,31.52
2022-12-16T06:53:59.519Z,35.40
2022-12-16T06:55:19.350Z,39.75
2022-12-16T06:56:39.355Z,35.35
2022-12-16T06:57:59.395Z,36.75
2022-12-16T06:59:19.351Z,37.90
2022-12-16T07:00:39.357Z,38.88
2022-12-16T07:01:59.618Z,35.40
2022-12-16T07:03:19.839Z,34.97
2022-12-16T07:04:40.028Z,35.80
2022-12-16T07:06:00.227Z,33.38
2022-12-16T07:07:20.546Z,34.10
2022-12-16T07:08:40.679Z,36.17
2022-12-16T07:10:00.588Z,33.58
2022-12-16T07:11:20.681Z,42.05
2022-12-16T07:12:40.973Z,35.78
2022-12-16T07:14:01.266Z,37.83
2022-12-16T07:15:21.135Z,37.17
2022-12-16T07:16:41.124Z,32.25
2022-12-16T07:18:03.989Z,36.00
2022-12-16T07:19:24.098Z,35.40
2022-12-16T07:20:43.998Z,37.22
2022-12-16T07:22:03.975Z,40.35
2022-12-16T07:23:24.072Z,38.25
2022-12-16T07:24:44.348Z,37.67
2022-12-16T07:26:04.456Z,37.00
2022-12-16T07:27:24.511Z,38.70
2022-12-16T07:28:44.445Z,39.15
2022-12-16T07:30:04.673Z,36.80
2022-12-16T07:31:24.735Z,35.30
2022-12-16T07:32:45.347Z,34.28
2022-12-16T07:34:05.323Z,37.80
2022-12-16T07:35:25.316Z,32.63
2022-12-16T09:24:39.019Z,41.17
2022-12-16T09:26:06.578Z,41.60
2022-12-16T09:27:37.451Z,42.65
2022-12-16T09:29:07.500Z,43.25
2022-12-16T09:32:27.595Z,39.72
2022-12-16T09:33:48.607Z,38.92
2022-12-16T09:36:45.748Z,41.33
2022-12-16T09:38:17.906Z,44.80
2022-12-16T09:39:38.532Z,40.70
2022-12-16T09:41:00.824Z,45.45
2022-12-16T09:43:08.384Z,45.15
2022-12-16T09:44:56.750Z,44.08
2022-12-16T09:46:51.064Z,46.35
2022-12-16T09:48:28.125Z,41.63
2022-12-16T09:50:07.934Z,40.33
2022-12-16T09:51:30.410Z,42.80
2022-12-16T09:52:54.019Z,43.33
2022-12-16T09:54:25.687Z,43.28
2022-12-16T09:56:08.815Z,42.90
2022-12-16T09:57:29.555Z,39.05
2022-12-16T09:58:53.810Z,39.03
2022-12-16T10:02:33.030Z,35.90
2022-12-16T10:03:59.742Z,44.10
2022-12-16T10:05:41.410Z,44.38
2022-12-16T10:07:08.651Z,45.88
2022-12-16T10:09:15.528Z,40.90
2022-12-16T10:11:03.337Z,46.72
2022-12-16T10:12:43.809Z,44.83
2022-12-16T10:14:32.342Z,47.58
2022-12-16T10:16:31.693Z,54.63
2022-12-16T10:18:11.330Z,83.50
2022-12-16T10:21:44.291Z,38.30
2022-12-16T10:23:24.427Z,48.78
2022-12-16T10:26:44.611Z,43.17
2022-12-16T10:28:06.425Z,43.67
2022-12-16T10:29:59.783Z,43.65
2022-12-16T10:31:31.966Z,43.33
2022-12-16T10:32:56.564Z,41.40
2022-12-16T10:34:16.948Z,38.33
2022-12-16T10:35:53.490Z,39.78
2022-12-16T10:37:20.653Z,45.08
2022-12-16T10:38:44.256Z,47.80
2022-12-16T10:40:17.454Z,43.20
2022-12-16T10:41:38.553Z,39.13
2022-12-16T10:43:03.603Z,42.38
2022-12-16T10:44:25.984Z,44.70
2022-12-16T10:45:51.504Z,39.75
2022-12-16T10:47:12.263Z,38.03
2022-12-16T10:52:54.183Z,30.98
2022-12-16T10:54:21.044Z,33.42
2022-12-16T10:55:47.681Z,31.08
2022-12-16T10:57:24.223Z,30.77
2022-12-16T10:59:15.363Z,34.80
2022-12-16T11:00:37.441Z,32.33
2022-12-16T11:01:58.555Z,32.97
2022-12-16T11:03:42.598Z,32.97
2022-12-16T11:05:04.364Z,31.38
2022-12-16T11:06:26.223Z,29.02
2022-12-16T11:07:46.881Z,29.23
2022-12-16T11:09:07.925Z,29.02
2022-12-16T11:10:48.682Z,30.67
2022-12-16T11:12:09.624Z,28.27
2022-12-16T11:13:40.005Z,33.63
2022-12-16T11:15:28.572Z,31.58
2022-12-16T11:16:50.540Z,29.13
2022-12-16T11:18:21.703Z,32.20
2022-12-16T11:19:43.381Z,33.30
2022-12-16T11:21:09.137Z,33.70
2022-12-16T11:22:36.168Z,29.30
2022-12-16T11:23:56.822Z,32.42
2022-12-16T11:25:26.853Z,33.55
2022-12-16T11:26:47.399Z,27.77
2022-12-16T11:29:46.021Z,34.97
2022-12-16T11:31:10.596Z,28.70
2022-12-16T11:32:42.802Z,29.15
2022-12-16T11:34:03.649Z,33.78
2022-12-16T11:35:25.820Z,30.30
2022-12-16T11:36:46.694Z,28.88
2022-12-16T11:38:30.658Z,29.48
2022-12-16T11:39:51.603Z,33.30
2022-12-16T11:41:12.819Z,29.48
2022-12-16T11:42:39.681Z,27.92
2022-12-16T11:44:14.935Z,33.42
2022-12-16T11:45:37.907Z,33.17
2022-12-16T11:46:58.874Z,31.05
2022-12-16T11:48:38.058Z,30.40
2022-12-16T11:49:59.457Z,31.48
2022-12-16T11:51:21.156Z,30.15
2022-12-16T11:52:42.349Z,32.85
2022-12-16T11:54:21.109Z,33.22
2022-12-16T11:56:06.582Z,28.17
2022-12-16T11:57:51.536Z,28.80
2022-12-16T12:01:01.361Z,29.40
2022-12-16T12:02:23.870Z,34.05
2022-12-16T12:03:45.507Z,33.60
2022-12-16T12:05:12.219Z,31.02
2022-12-16T12:06:40.835Z,31.08
2022-12-16T12:08:18.833Z,33.05
2022-12-16T12:09:44.386Z,34.58
2022-12-16T12:11:20.610Z,27.08
2022-12-16T12:12:54.573Z,36.20
2022-12-16T12:14:25.238Z,29.27
2022-12-16T12:15:46.026Z,31.30
2022-12-16T12:17:22.014Z,36.17
2022-12-16T12:18:58.494Z,32.88
2022-12-16T12:20:41.915Z,33.42
2022-12-16T12:22:08.954Z,30.17
2022-12-16T12:23:47.042Z,31.75
2022-12-16T12:25:32.796Z,31.23
2022-12-16T12:26:57.955Z,29.75
2022-12-16T12:28:24.133Z,31.92
2022-12-16T12:29:44.889Z,29.42
2022-12-16T12:31:19.706Z,33.45
2022-12-16T12:32:55.575Z,34.67
2022-12-16T12:34:26.319Z,31.05
2022-12-16T12:36:04.522Z,29.92
2022-12-16T12:37:42.371Z,29.05
2022-12-16T12:39:29.992Z,28.98
2022-12-16T12:41:02.867Z,32.20
2022-12-16T12:42:54.953Z,31.40
2022-12-16T12:44:56.215Z,29.83
2022-12-16T12:46:26.969Z,33.15
2022-12-16T12:55:42.789Z,30.33
2022-12-16T12:57:42.578Z,36.05
2022-12-16T12:59:16.598Z,35.30
2022-12-16T13:00:39.671Z,30.08
2022-12-16T13:06:08.174Z,29.17
2022-12-16T13:07:31.379Z,33.92
2022-12-16T13:08:52.367Z,34.00
2022-12-16T13:12:34.691Z,31.40
2022-12-16T13:19:53.572Z,29.55
2022-12-16T13:25:54.336Z,30.60
2022-12-16T13:27:36.837Z,27.08
2022-12-16T13:31:11.807Z,26.88
2022-12-16T13:32:42.915Z,30.15
2022-12-16T13:34:09.954Z,31.67
2022-12-16T13:37:33.922Z,28.90
2022-12-16T13:39:11.830Z,30.30
2022-12-16T13:40:49.942Z,30.95
2022-12-16T13:44:19.128Z,30.52
2022-12-16T13:45:42.289Z,30.75
2022-12-16T13:47:14.709Z,29.27
2022-12-16T13:49:08.205Z,28.67
2022-12-16T13:50:55.009Z,27.90
2022-12-16T13:52:28.664Z,29.98
2022-12-16T13:54:36.167Z,29.70
2022-12-16T13:56:15.679Z,31.13
2022-12-16T13:57:44.076Z,30.08
2022-12-16T13:59:17.115Z,29.55
2022-12-16T14:00:52.327Z,26.35
2022-12-16T14:02:39.336Z,32.70
2022-12-16T14:10:25.839Z,39.90
2022-12-16T14:17:12.920Z,41.10
2022-12-16T14:26:36.389Z,37.55
2022-12-16T14:28:35.116Z,37.45
2022-12-16T14:59:05.568Z,45.10
2022-12-16T15:00:25.933Z,43.33
2022-12-16T15:01:46.407Z,44.30
2022-12-16T15:03:09.026Z,45.10
2022-12-16T15:04:34.195Z,44.25
2022-12-16T15:05:56.872Z,48.13
2022-12-16T15:07:17.247Z,45.13
2022-12-16T15:08:37.733Z,46.90
2022-12-16T15:10:02.496Z,48.55
2022-12-16T15:11:24.100Z,49.10
2022-12-16T15:12:45.894Z,47.22
2022-12-16T15:15:29.076Z,48.03
2022-12-16T15:16:53.427Z,46.05
2022-12-16T15:18:15.126Z,49.05
2022-12-16T15:19:37.548Z,44.08
2022-12-16T15:21:03.181Z,50.97
2022-12-16T15:22:24.600Z,46.05
2022-12-16T15:23:46.555Z,41.30
2022-12-16T15:25:23.195Z,43.15
2022-12-16T15:26:44.449Z,49.42
2022-12-16T15:28:11.620Z,46.47
2022-12-16T15:29:43.676Z,47.45
2022-12-16T15:31:05.180Z,51.35
2022-12-16T15:32:41.709Z,50.30
2022-12-16T15:34:01.947Z,49.63
2022-12-16T15:35:22.109Z,46.67
2022-12-16T15:36:48.430Z,58.83
2022-12-16T15:38:08.626Z,49.45
2022-12-16T15:39:29.808Z,52.17
2022-12-16T15:40:52.404Z,59.03
2022-12-16T15:42:14.050Z,62.30
2022-12-16T15:43:46.421Z,59.33
2022-12-16T15:45:08.832Z,49.85
2022-12-16T15:46:39.214Z,55.97
2022-12-16T15:47:59.415Z,50.35
2022-12-16T15:49:20.040Z,49.22
2022-12-16T15:50:42.849Z,57.00
2022-12-16T15:52:06.534Z,51.83
2022-12-16T15:53:45.377Z,48.53
2022-12-16T15:55:12.982Z,60.25
2022-12-16T15:56:56.288Z,57.80
2022-12-16T15:58:17.042Z,49.58
2022-12-16T15:59:42.217Z,56.05
2022-12-16T16:01:15.077Z,55.85
2022-12-16T16:02:39.966Z,59.97
2022-12-16T16:04:06.796Z,53.47
2022-12-16T16:05:49.785Z,55.92
2022-12-16T16:07:11.064Z,54.30
2022-12-16T16:08:31.687Z,50.10
2022-12-16T16:09:53.071Z,49.75
2022-12-16T16:11:15.367Z,53.35
2022-12-16T16:12:36.803Z,57.55
2022-12-16T16:14:00.992Z,62.20
2022-12-16T16:15:26.317Z,60.67
2022-12-16T16:16:46.869Z,56.08
2022-12-16T16:18:09.393Z,56.50
2022-12-16T16:19:34.964Z,63.63
2022-12-16T16:20:55.259Z,64.55
2022-12-16T16:22:15.544Z,63.92
2022-12-16T16:23:35.893Z,64.25
2022-12-16T16:24:56.663Z,63.33
2022-12-16T16:26:16.890Z,68.25
2022-12-16T16:27:37.400Z,60.67
2022-12-16T16:28:57.973Z,64.57
2022-12-16T16:30:20.167Z,67.30
2022-12-16T16:31:40.809Z,64.63
2022-12-16T16:33:01.829Z,63.58
2022-12-16T16:34:22.166Z,68.28
2022-12-16T16:35:42.381Z,64.13
2022-12-16T16:37:03.023Z,68.72
2022-12-16T16:38:24.162Z,99.70
2022-12-16T16:39:44.479Z,88.00
2022-12-16T16:41:04.567Z,107.50
2022-12-16T16:42:24.785Z,89.38
2022-12-16T16:43:45.395Z,76.53
2022-12-16T16:45:06.494Z,63.30
2022-12-16T16:46:36.287Z,74.10
2022-12-16T16:47:56.793Z,73.22
2022-12-16T16:49:17.301Z,70.05
2022-12-16T16:50:37.828Z,58.90
2022-12-16T16:51:57.915Z,58.55
2022-12-16T16:53:18.571Z,94.25
2022-12-16T16:54:38.867Z,117.10
2022-12-16T16:56:00.045Z,74.18
2022-12-16T16:57:22.975Z,50.95
2022-12-16T16:58:47.071Z,51.40
2022-12-16T17:00:07.557Z,47.58
2022-12-16T17:01:31.452Z,52.55
2022-12-16T17:03:08.900Z,54.33
2022-12-16T17:04:36.570Z,47.95
2022-12-16T17:05:56.747Z,51.50
2022-12-16T17:07:16.762Z,49.45
2022-12-16T17:08:37.111Z,47.35
2022-12-16T17:09:57.801Z,51.83
2022-12-16T17:11:18.287Z,51.20
2022-12-16T17:12:40.096Z,54.22
2022-12-16T17:14:00.037Z,48.08
2022-12-16T17:15:20.048Z,49.70
2022-12-16T17:16:40.605Z,47.08
2022-12-16T17:18:00.983Z,48.83
2022-12-16T17:19:24.772Z,53.20
2022-12-16T17:20:44.979Z,53.35
2022-12-16T17:22:05.304Z,51.17
2022-12-16T17:23:25.581Z,49.50
2022-12-16T17:24:49.350Z,48.63
2022-12-16T17:26:11.769Z,52.75
2022-12-16T17:27:34.383Z,50.33
2022-12-16T17:28:54.703Z,54.85
2022-12-16T17:30:15.248Z,49.72
2022-12-16T17:31:35.811Z,52.22
2022-12-16T17:32:56.502Z,49.22
2022-12-16T17:34:21.100Z,52.95
2022-12-16T17:35:45.964Z,48.57
2022-12-16T17:37:05.924Z,51.33
2022-12-16T17:38:27.508Z,53.03
2022-12-16T17:39:48.167Z,52.63
2022-12-16T17:41:11.595Z,52.65
2022-12-16T17:42:31.685Z,48.17
2022-12-16T17:43:52.030Z,46.65
2022-12-16T17:45:12.276Z,46.75
2022-12-16T17:46:32.657Z,53.90
2022-12-16T17:47:52.910Z,56.17
2022-12-16T17:49:15.143Z,50.83
2022-12-16T17:50:36.121Z,49.20
2022-12-16T17:51:56.410Z,59.53
2022-12-16T17:53:17.318Z,54.55
2022-12-16T17:54:40.444Z,46.78
2022-12-16T17:56:01.935Z,46.33
2022-12-16T17:57:22.240Z,47.35
2022-12-16T17:58:48.372Z,48.58
2022-12-16T18:00:09.083Z,46.40
2022-12-16T18:01:29.256Z,47.25
2022-12-16T18:02:49.763Z,45.50
2022-12-16T18:04:10.409Z,42.53
2022-12-16T18:05:37.615Z,49.08
2022-12-16T18:07:01.697Z,40.40
2022-12-16T18:08:21.681Z,44.58
2022-12-16T18:09:41.611Z,45.15
2022-12-16T18:11:01.671Z,46.17
2022-12-16T18:12:21.828Z,43.22
2022-12-16T18:13:42.204Z,42.28
2022-12-16T18:15:02.539Z,42.22
2022-12-16T18:16:22.677Z,40.85
2022-12-16T18:17:43.108Z,41.80
2022-12-16T18:19:07.410Z,46.00
2022-12-16T18:20:27.813Z,42.97
2022-12-16T18:21:47.883Z,39.78
2022-12-16T18:23:10.924Z,40.58
2022-12-16T18:24:30.847Z,40.42
2022-12-16T18:29:52.195Z,43.03
2022-12-16T18:31:12.973Z,45.40
2022-12-16T18:32:35.212Z,51.08
2022-12-16T18:33:55.855Z,45.53
2022-12-16T18:35:16.041Z,43.45
2022-12-16T18:36:36.745Z,49.28
2022-12-16T18:37:57.087Z,45.67
2022-12-16T18:39:17.540Z,44.00
2022-12-16T18:40:38.005Z,45.70
2022-12-16T18:42:04.089Z,46.95
2022-12-16T18:43:24.077Z,42.67
2022-12-16T18:44:44.189Z,51.35
2022-12-16T18:46:10.175Z,41.70
2022-12-16T18:47:30.628Z,50.80
2022-12-16T18:48:50.807Z,48.20
2022-12-16T18:50:11.103Z,45.67
2022-12-16T18:51:31.459Z,43.15
2022-12-16T18:52:51.696Z,46.47
2022-12-16T18:54:11.723Z,45.58
2022-12-16T18:55:31.799Z,49.42
2022-12-16T18:56:51.856Z,52.55
2022-12-16T18:58:34.856Z,50.13
2022-12-16T18:59:52.607Z,50.95
2022-12-16T19:01:20.181Z,49.05
2022-12-16T19:02:40.950Z,51.35
2022-12-16T19:04:01.107Z,47.65
2022-12-16T19:05:21.239Z,49.63
2022-12-16T19:06:41.269Z,38.28
2022-12-16T19:08:01.186Z,43.00
2022-12-16T19:09:21.112Z,41.38
2022-12-16T19:10:41.046Z,45.42
2022-12-16T19:12:01.216Z,39.13
2022-12-16T19:13:21.547Z,40.00
2022-12-16T19:14:41.523Z,39.05
2022-12-16T19:16:01.970Z,42.63
2022-12-16T19:17:22.269Z,43.97
2022-12-16T19:18:42.784Z,43.22
2022-12-16T19:20:02.817Z,42.88
2022-12-16T19:21:22.999Z,47.40
2022-12-16T19:22:43.108Z,43.83
2022-12-16T19:24:03.284Z,41.20
2022-12-16T19:25:23.203Z,42.72
2022-12-16T19:26:43.734Z,47.05
2022-12-16T19:28:04.029Z,56.28
2022-12-16T19:29:24.159Z,47.58
2022-12-16T19:30:44.560Z,48.58
2022-12-16T20:54:09.124Z,41.90
2022-12-16T20:55:29.214Z,47.75
2022-12-16T20:56:49.331Z,51.08
2022-12-16T20:58:09.679Z,48.65
2022-12-16T20:59:29.929Z,54.85
2022-12-16T21:00:50.039Z,54.30
2022-12-16T21:02:30.339Z,58.90
2022-12-16T21:03:50.362Z,48.70
2022-12-16T21:05:10.365Z,53.47
2022-12-16T21:06:31.745Z,48.05
2022-12-16T21:07:52.373Z,44.65
2022-12-16T21:09:13.489Z,51.08
2022-12-16T21:10:33.956Z,57.30
2022-12-16T21:11:54.152Z,49.97
2022-12-16T21:13:23.727Z,53.67
2022-12-16T21:14:43.751Z,46.22
2022-12-16T21:16:04.296Z,55.90
2022-12-16T21:17:24.621Z,52.70
2022-12-16T21:18:44.649Z,54.03
2022-12-16T21:20:04.848Z,48.88
2022-12-16T21:21:25.348Z,49.40
2022-12-16T21:22:45.441Z,44.88
2022-12-16T21:24:06.070Z,44.10
2022-12-16T21:25:26.529Z,48.35
2022-12-16T21:26:46.880Z,47.60
2022-12-16T21:28:07.247Z,50.15
2022-12-16T21:29:27.548Z,57.05
2022-12-16T21:30:47.731Z,52.80
2022-12-16T21:32:08.333Z,57.65
2022-12-16T21:33:36.178Z,54.83
2022-12-16T21:34:56.533Z,50.17
2022-12-16T21:36:16.948Z,47.95
2022-12-16T21:37:37.086Z,44.95
2022-12-16T21:38:57.206Z,45.22
2022-12-16T21:40:17.593Z,49.78
2022-12-16T21:41:37.566Z,45.38
2022-12-16T21:42:57.403Z,46.40
2022-12-16T21:44:17.644Z,42.78
2022-12-16T21:45:37.811Z,46.08
2022-12-16T21:46:58.185Z,41.40
2022-12-16T21:48:18.755Z,48.15
2022-12-16T21:49:42.034Z,45.33
2022-12-16T21:51:02.045Z,45.88
2022-12-16T21:52:22.231Z,44.20
2022-12-16T21:53:42.873Z,44.70
2022-12-16T21:55:03.905Z,48.58
2022-12-16T21:56:27.541Z,48.13
2022-12-16T21:57:48.972Z,46.58
2022-12-16T21:59:13.827Z,47.28
2022-12-16T22:00:34.551Z,40.60
2022-12-16T22:01:54.744Z,42.45
2022-12-16T22:03:16.960Z,43.58
2022-12-16T22:04:39.151Z,42.53
2022-12-16T22:05:59.496Z,40.88
2022-12-16T22:07:19.932Z,39.55
2022-12-16T22:08:40.342Z,40.30
2022-12-16T22:10:00.400Z,37.88
2022-12-16T22:11:27.198Z,38.65
2022-12-16T22:12:47.463Z,39.20
2022-12-16T22:14:07.421Z,40.72
2022-12-16T22:15:28.006Z,42.28
2022-12-16T22:16:48.692Z,37.92
2022-12-16T22:18:09.033Z,42.97
2022-12-16T22:19:43.500Z,37.72
2022-12-16T22:21:03.508Z,37.90
2022-12-16T22:22:23.798Z,40.25
2022-12-16T22:23:49.929Z,38.58
2022-12-16T22:26:50.469Z,39.20
2022-12-16T22:28:10.629Z,41.45
2022-12-16T22:29:31.152Z,41.67
2022-12-16T22:30:51.580Z,43.08
2022-12-16T22:32:12.080Z,43.17
2022-12-16T22:33:32.259Z,37.00
2022-12-16T22:34:52.541Z,34.00
2022-12-16T22:36:18.141Z,39.13
2022-12-16T22:37:38.292Z,38.53
2022-12-16T22:38:58.666Z,37.10
2022-12-16T22:40:19.218Z,40.88
2022-12-16T22:41:39.131Z,38.58
2022-12-16T22:42:59.180Z,41.50
2022-12-16T22:44:20.277Z,38.28
2022-12-16T22:45:40.286Z,39.45
2022-12-16T22:47:01.002Z,38.85
2022-12-16T22:48:21.205Z,37.90
2022-12-16T22:49:41.128Z,39.00
2022-12-16T22:51:01.383Z,39.67
2022-12-16T22:52:21.449Z,37.13
2022-12-16T22:53:41.689Z,36.00
2022-12-16T22:55:02.607Z,33.33
2022-12-16T22:56:22.591Z,33.75
2022-12-16T22:57:42.859Z,34.10
2022-12-16T22:59:02.842Z,35.38
2022-12-16T23:00:23.712Z,37.53
2022-12-16T23:01:43.897Z,35.95
2022-12-16T23:03:04.267Z,36.70
2022-12-16T23:04:24.672Z,36.00
2022-12-16T23:05:44.900Z,36.88
2022-12-16T23:07:04.871Z,39.25
2022-12-16T23:08:24.876Z,40.22
2022-12-16T23:09:44.879Z,39.00
2022-12-16T23:11:11.626Z,40.70
2022-12-16T23:12:31.909Z,39.40
2022-12-16T23:13:52.163Z,37.83
2022-12-16T23:15:13.339Z,41.53
2022-12-16T23:16:33.924Z,39.88
2022-12-16T23:17:53.941Z,39.20
2022-12-16T23:19:16.707Z,38.38
2022-12-16T23:20:36.968Z,34.35
2022-12-16T23:21:56.940Z,37.30
2022-12-16T23:23:16.868Z,36.10
